sensor_id;sensor_type;location;lat;lon;timestamp;pressure;altitude;pressure_sealevel;temperature;humidity
66176;BME280;52977;44.816;20.538;2023-03-14T00:02:10;99297.69;;;9.20;38.66
66176;BME280;52977;44.816;20.538;2023-03-14T00:04:36;99360.13;;;9.61;39.10
66176;BME280;52977;44.816;20.538;2023-03-14T00:07:03;99324.91;;;9.47;38.47
66176;BME280;52977;44.816;20.538;2023-03-14T00:09:29;99360.44;;;9.68;39.02
66176;BME280;52977;44.816;20.538;2023-03-14T00:11:56;99367.50;;;9.69;39.50
66176;BME280;52977;44.816;20.538;2023-03-14T00:14:22;99351.97;;;9.52;39.51
66176;BME280;52977;44.816;20.538;2023-03-14T00:16:49;99329.25;;;9.30;39.83
66176;BME280;52977;44.816;20.538;2023-03-14T00:19:14;99341.41;;;9.41;39.02
66176;BME280;52977;44.816;20.538;2023-03-14T00:21:40;99340.13;;;9.39;39.31
66176;BME280;52977;44.816;20.538;2023-03-14T00:24:07;99352.28;;;9.59;39.38
66176;BME280;52977;44.816;20.538;2023-03-14T00:26:33;99247.13;;;8.84;39.70
66176;BME280;52977;44.816;20.538;2023-03-14T00:28:59;99317.41;;;9.26;39.96
66176;BME280;52977;44.816;20.538;2023-03-14T00:31:26;99282.19;;;9.03;40.34
66176;BME280;52977;44.816;20.538;2023-03-14T00:33:52;99349.59;;;9.50;39.61
66176;BME280;52977;44.816;20.538;2023-03-14T00:36:19;99348.78;;;9.50;39.62
66176;BME280;52977;44.816;20.538;2023-03-14T00:38:48;99343.00;;;9.51;39.73
66176;BME280;52977;44.816;20.538;2023-03-14T00:41:18;99322.81;;;9.35;39.51
66176;BME280;52977;44.816;20.538;2023-03-14T00:43:45;99335.81;;;9.47;39.45
66176;BME280;52977;44.816;20.538;2023-03-14T00:46:12;99336.63;;;9.38;39.88
66176;BME280;52977;44.816;20.538;2023-03-14T00:48:39;99342.38;;;9.46;40.70
66176;BME280;52977;44.816;20.538;2023-03-14T00:51:06;99338.34;;;9.43;40.48
66176;BME280;52977;44.816;20.538;2023-03-14T00:53:38;99327.00;;;9.41;39.79
66176;BME280;52977;44.816;20.538;2023-03-14T00:56:07;99322.84;;;9.44;39.15
66176;BME280;52977;44.816;20.538;2023-03-14T00:58:33;99278.47;;;9.26;39.29
66176;BME280;52977;44.816;20.538;2023-03-14T01:01:14;99322.19;;;9.47;40.35
66176;BME280;52977;44.816;20.538;2023-03-14T01:03:41;99318.03;;;9.40;40.12
66176;BME280;52977;44.816;20.538;2023-03-14T01:06:21;99300.91;;;9.31;40.06
66176;BME280;52977;44.816;20.538;2023-03-14T01:08:48;99256.91;;;9.03;40.46
66176;BME280;52977;44.816;20.538;2023-03-14T01:11:17;99240.72;;;8.98;41.22
66176;BME280;52977;44.816;20.538;2023-03-14T01:13:44;99223.59;;;8.80;41.22
66176;BME280;52977;44.816;20.538;2023-03-14T01:16:12;99303.44;;;9.28;40.99
66176;BME280;52977;44.816;20.538;2023-03-14T01:18:40;99215.78;;;8.69;41.27
66176;BME280;52977;44.816;20.538;2023-03-14T01:21:21;99292.41;;;9.24;41.18
66176;BME280;52977;44.816;20.538;2023-03-14T01:23:50;99286.97;;;9.24;41.28
66176;BME280;52977;44.816;20.538;2023-03-14T01:26:20;99285.19;;;9.19;41.02
66176;BME280;52977;44.816;20.538;2023-03-14T01:28:48;99286.03;;;9.20;41.49
66176;BME280;52977;44.816;20.538;2023-03-14T01:31:16;99255.13;;;9.07;41.29
66176;BME280;52977;44.816;20.538;2023-03-14T01:33:42;99276.25;;;9.19;41.21
66176;BME280;52977;44.816;20.538;2023-03-14T01:36:09;99261.97;;;9.22;41.25
66176;BME280;52977;44.816;20.538;2023-03-14T01:38:38;99224.25;;;8.85;41.58
66176;BME280;52977;44.816;20.538;2023-03-14T01:41:09;99232.22;;;8.99;41.45
66176;BME280;52977;44.816;20.538;2023-03-14T01:43:37;99240.38;;;9.08;41.90
66176;BME280;52977;44.816;20.538;2023-03-14T01:48:36;99256.25;;;9.06;41.68
66176;BME280;52977;44.816;20.538;2023-03-14T01:51:04;99248.88;;;9.06;41.88
66176;BME280;52977;44.816;20.538;2023-03-14T01:53:32;99209.53;;;8.86;41.33
66176;BME280;52977;44.816;20.538;2023-03-14T01:55:59;99247.25;;;9.14;41.58
66176;BME280;52977;44.816;20.538;2023-03-14T01:58:27;99245.03;;;9.07;41.83
66176;BME280;52977;44.816;20.538;2023-03-14T02:00:56;99251.75;;;9.01;41.47
66176;BME280;52977;44.816;20.538;2023-03-14T02:03:23;99252.72;;;9.05;41.61
66176;BME280;52977;44.816;20.538;2023-03-14T02:05:53;99145.03;;;8.43;41.80
66176;BME280;52977;44.816;20.538;2023-03-14T02:08:22;99242.63;;;9.06;41.71
66176;BME280;52977;44.816;20.538;2023-03-14T02:10:53;99224.22;;;8.94;41.86
66176;BME280;52977;44.816;20.538;2023-03-14T02:13:34;99195.13;;;8.68;42.37
66176;BME280;52977;44.816;20.538;2023-03-14T02:16:23;99236.41;;;8.88;42.14
66176;BME280;52977;44.816;20.538;2023-03-14T02:19:08;99220.72;;;8.85;41.94
66176;BME280;52977;44.816;20.538;2023-03-14T02:22:07;99228.56;;;8.95;41.54
66176;BME280;52977;44.816;20.538;2023-03-14T02:27:36;99216.56;;;8.87;42.61
66176;BME280;52977;44.816;20.538;2023-03-14T02:30:05;99223.25;;;8.90;42.47
66176;BME280;52977;44.816;20.538;2023-03-14T02:32:34;99215.25;;;8.94;42.21
66176;BME280;52977;44.816;20.538;2023-03-14T02:35:08;99222.66;;;8.93;42.54
66176;BME280;52977;44.816;20.538;2023-03-14T02:37:52;99210.47;;;8.82;42.48
66176;BME280;52977;44.816;20.538;2023-03-14T02:40:20;99213.34;;;8.85;42.65
66176;BME280;52977;44.816;20.538;2023-03-14T02:42:50;99188.72;;;8.64;42.83
66176;BME280;52977;44.816;20.538;2023-03-14T02:47:49;99219.44;;;8.91;42.52
66176;BME280;52977;44.816;20.538;2023-03-14T02:50:20;99214.47;;;8.84;42.71
66176;BME280;52977;44.816;20.538;2023-03-14T02:52:47;99218.66;;;8.73;42.73
66176;BME280;52977;44.816;20.538;2023-03-14T02:55:13;99231.75;;;8.88;42.48
66176;BME280;52977;44.816;20.538;2023-03-14T02:57:42;99215.09;;;8.90;42.78
66176;BME280;52977;44.816;20.538;2023-03-14T03:00:08;99219.91;;;8.84;43.14
66176;BME280;52977;44.816;20.538;2023-03-14T03:02:36;99204.22;;;8.81;43.61
66176;BME280;52977;44.816;20.538;2023-03-14T03:05:02;99211.94;;;8.79;43.34
66176;BME280;52977;44.816;20.538;2023-03-14T03:07:27;99211.28;;;8.82;43.13
66176;BME280;52977;44.816;20.538;2023-03-14T03:09:55;99130.31;;;8.27;42.81
66176;BME280;52977;44.816;20.538;2023-03-14T03:12:21;99214.34;;;8.81;43.70
66176;BME280;52977;44.816;20.538;2023-03-14T03:14:46;99174.00;;;8.48;43.40
66176;BME280;52977;44.816;20.538;2023-03-14T03:17:14;99180.56;;;8.47;43.65
66176;BME280;52977;44.816;20.538;2023-03-14T03:19:40;99219.75;;;8.72;43.21
66176;BME280;52977;44.816;20.538;2023-03-14T03:22:06;99155.44;;;8.24;43.35
66176;BME280;52977;44.816;20.538;2023-03-14T03:24:32;99220.72;;;8.67;43.52
66176;BME280;52977;44.816;20.538;2023-03-14T03:27:01;99214.00;;;8.65;44.00
66176;BME280;52977;44.816;20.538;2023-03-14T03:29:27;99208.13;;;8.54;43.68
66176;BME280;52977;44.816;20.538;2023-03-14T03:31:53;99208.91;;;8.54;44.09
66176;BME280;52977;44.816;20.538;2023-03-14T03:34:20;99159.59;;;8.30;43.78
66176;BME280;52977;44.816;20.538;2023-03-14T03:36:49;99204.75;;;8.57;43.85
66176;BME280;52977;44.816;20.538;2023-03-14T03:39:15;99196.41;;;8.53;43.84
66176;BME280;52977;44.816;20.538;2023-03-14T03:41:41;99202.66;;;8.45;44.09
66176;BME280;52977;44.816;20.538;2023-03-14T03:44:07;99166.31;;;8.32;44.38
66176;BME280;52977;44.816;20.538;2023-03-14T03:46:33;99188.72;;;8.47;43.84
66176;BME280;52977;44.816;20.538;2023-03-14T03:49:00;99164.38;;;8.24;44.19
66176;BME280;52977;44.816;20.538;2023-03-14T03:51:27;99195.00;;;8.47;43.82
66176;BME280;52977;44.816;20.538;2023-03-14T03:53:53;99202.66;;;8.45;43.46
66176;BME280;52977;44.816;20.538;2023-03-14T03:56:25;99176.41;;;8.32;43.48
66176;BME280;52977;44.816;20.538;2023-03-14T03:58:51;99144.22;;;8.08;43.83
66176;BME280;52977;44.816;20.538;2023-03-14T04:01:17;99167.75;;;8.30;43.41
66176;BME280;52977;44.816;20.538;2023-03-14T04:03:46;99182.44;;;8.29;44.11
66176;BME280;52977;44.816;20.538;2023-03-14T04:06:12;99198.16;;;8.41;43.58
66176;BME280;52977;44.816;20.538;2023-03-14T04:08:40;99220.91;;;8.45;43.98
66176;BME280;52977;44.816;20.538;2023-03-14T04:11:09;99136.72;;;7.96;44.27
66176;BME280;52977;44.816;20.538;2023-03-14T04:13:53;99138.97;;;8.02;44.29
66176;BME280;52977;44.816;20.538;2023-03-14T04:16:21;99190.13;;;8.35;44.69
66176;BME280;52977;44.816;20.538;2023-03-14T04:18:48;99188.72;;;8.29;44.41
66176;BME280;52977;44.816;20.538;2023-03-14T04:21:15;99190.78;;;8.32;44.18
66176;BME280;52977;44.816;20.538;2023-03-14T04:23:45;99172.22;;;8.26;43.72
66176;BME280;52977;44.816;20.538;2023-03-14T04:26:14;99188.56;;;8.43;44.00
66176;BME280;52977;44.816;20.538;2023-03-14T04:28:40;99177.84;;;8.29;44.14
66176;BME280;52977;44.816;20.538;2023-03-14T04:31:12;99190.78;;;8.41;43.63
66176;BME280;52977;44.816;20.538;2023-03-14T04:33:38;99130.94;;;8.06;43.88
66176;BME280;52977;44.816;20.538;2023-03-14T04:36:06;99175.28;;;8.42;43.80
66176;BME280;52977;44.816;20.538;2023-03-14T04:38:32;99091.47;;;7.91;43.18
66176;BME280;52977;44.816;20.538;2023-03-14T04:40:59;99150.66;;;8.47;43.28
66176;BME280;52977;44.816;20.538;2023-03-14T04:43:30;99145.06;;;8.52;43.56
66176;BME280;52977;44.816;20.538;2023-03-14T04:46:02;99149.53;;;8.48;44.01
66176;BME280;52977;44.816;20.538;2023-03-14T04:48:29;99113.84;;;8.14;43.16
66176;BME280;52977;44.816;20.538;2023-03-14T04:50:56;99097.69;;;8.09;43.43
66176;BME280;52977;44.816;20.538;2023-03-14T04:53:22;99160.09;;;8.49;43.42
66176;BME280;52977;44.816;20.538;2023-03-14T04:55:54;99124.72;;;8.23;43.43
66176;BME280;52977;44.816;20.538;2023-03-14T04:58:23;99172.41;;;8.47;43.51
66176;BME280;52977;44.816;20.538;2023-03-14T05:00:50;99157.69;;;8.39;43.43
66176;BME280;52977;44.816;20.538;2023-03-14T05:03:35;99155.47;;;8.50;43.15
66176;BME280;52977;44.816;20.538;2023-03-14T05:06:13;99147.31;;;8.50;43.56
66176;BME280;52977;44.816;20.538;2023-03-14T05:08:58;99077.41;;;8.07;43.14
66176;BME280;52977;44.816;20.538;2023-03-14T05:11:43;99153.22;;;8.52;43.27
66176;BME280;52977;44.816;20.538;2023-03-14T05:14:37;99139.78;;;8.47;43.15
66176;BME280;52977;44.816;20.538;2023-03-14T05:17:22;99146.63;;;8.35;43.23
66176;BME280;52977;44.816;20.538;2023-03-14T05:20:14;99068.28;;;7.85;43.40
66176;BME280;52977;44.816;20.538;2023-03-14T05:22:56;99127.75;;;8.39;43.64
66176;BME280;52977;44.816;20.538;2023-03-14T05:25:43;99135.94;;;8.48;43.07
66176;BME280;52977;44.816;20.538;2023-03-14T05:28:18;99117.84;;;8.43;43.10
66176;BME280;52977;44.816;20.538;2023-03-14T05:31:08;99132.25;;;8.52;42.96
66176;BME280;52977;44.816;20.538;2023-03-14T05:33:45;99117.84;;;8.52;43.00
66176;BME280;52977;44.816;20.538;2023-03-14T05:36:30;99088.25;;;8.42;43.46
66176;BME280;52977;44.816;20.538;2023-03-14T05:39:16;99084.25;;;8.39;43.57
66176;BME280;52977;44.816;20.538;2023-03-14T05:42:03;99096.75;;;8.49;42.94
66176;BME280;52977;44.816;20.538;2023-03-14T05:44:56;98966.94;;;7.76;43.73
66176;BME280;52977;44.816;20.538;2023-03-14T05:48:00;99102.31;;;8.61;43.66
66176;BME280;52977;44.816;20.538;2023-03-14T05:50:57;99080.88;;;8.51;44.23
66176;BME280;52977;44.816;20.538;2023-03-14T05:53:46;99067.16;;;8.47;44.11
66176;BME280;52977;44.816;20.538;2023-03-14T05:56:32;99060.56;;;8.39;44.19
66176;BME280;52977;44.816;20.538;2023-03-14T05:59:25;99069.22;;;8.50;44.08
66176;BME280;52977;44.816;20.538;2023-03-14T06:01:59;99058.31;;;8.50;44.34
66176;BME280;52977;44.816;20.538;2023-03-14T06:04:28;99042.78;;;8.51;44.08
66176;BME280;52977;44.816;20.538;2023-03-14T06:06:57;99032.13;;;8.46;44.34
66176;BME280;52977;44.816;20.538;2023-03-14T06:09:23;99053.16;;;8.66;43.88
66176;BME280;52977;44.816;20.538;2023-03-14T06:11:51;99012.09;;;8.33;44.17
66176;BME280;52977;44.816;20.538;2023-03-14T06:14:17;99068.66;;;8.75;44.94
66176;BME280;52977;44.816;20.538;2023-03-14T06:16:46;99072.00;;;8.80;44.64
66176;BME280;52977;44.816;20.538;2023-03-14T06:19:16;99076.66;;;8.80;44.82
66176;BME280;52977;44.816;20.538;2023-03-14T06:21:42;99047.53;;;8.71;43.99
66176;BME280;52977;44.816;20.538;2023-03-14T06:24:08;99058.28;;;8.68;44.36
66176;BME280;52977;44.816;20.538;2023-03-14T06:26:40;99037.44;;;8.81;44.43
66176;BME280;52977;44.816;20.538;2023-03-14T06:29:08;99048.13;;;8.86;44.00
66176;BME280;52977;44.816;20.538;2023-03-14T06:31:34;99076.72;;;9.01;44.37
66176;BME280;52977;44.816;20.538;2023-03-14T06:34:04;99064.41;;;9.03;44.27
66176;BME280;52977;44.816;20.538;2023-03-14T06:36:30;99089.19;;;9.11;44.18
66176;BME280;52977;44.816;20.538;2023-03-14T06:38:57;99079.38;;;9.18;43.70
66176;BME280;52977;44.816;20.538;2023-03-14T06:41:25;99064.69;;;9.11;44.53
66176;BME280;52977;44.816;20.538;2023-03-14T06:43:52;99037.53;;;8.93;43.92
66176;BME280;52977;44.816;20.538;2023-03-14T06:46:20;99048.22;;;8.98;43.73
66176;BME280;52977;44.816;20.538;2023-03-14T06:48:46;99095.28;;;9.37;43.85
66176;BME280;52977;44.816;20.538;2023-03-14T06:51:13;99077.38;;;9.36;43.90
66176;BME280;52977;44.816;20.538;2023-03-14T06:53:39;99015.06;;;9.05;43.67
66176;BME280;52977;44.816;20.538;2023-03-14T06:56:06;99069.00;;;9.41;43.05
66176;BME280;52977;44.816;20.538;2023-03-14T06:58:34;99007.28;;;8.95;43.08
66176;BME280;52977;44.816;20.538;2023-03-14T07:01:02;99088.03;;;9.50;43.57
66176;BME280;52977;44.816;20.538;2023-03-14T07:03:35;99065.31;;;9.46;43.01
66176;BME280;52977;44.816;20.538;2023-03-14T07:06:03;99077.84;;;9.60;44.24
66176;BME280;52977;44.816;20.538;2023-03-14T07:08:31;99059.03;;;9.46;44.05
66176;BME280;52977;44.816;20.538;2023-03-14T07:10:59;99049.06;;;9.50;45.17
66176;BME280;52977;44.816;20.538;2023-03-14T07:13:26;99083.25;;;9.68;45.25
66176;BME280;52977;44.816;20.538;2023-03-14T07:16:01;99066.59;;;9.70;45.39
66176;BME280;52977;44.816;20.538;2023-03-14T07:18:27;99035.38;;;9.37;45.97
66176;BME280;52977;44.816;20.538;2023-03-14T07:20:55;99035.97;;;9.43;45.27
66176;BME280;52977;44.816;20.538;2023-03-14T07:23:21;99078.72;;;9.72;44.85
66176;BME280;52977;44.816;20.538;2023-03-14T07:25:48;99085.13;;;9.77;44.87
66176;BME280;52977;44.816;20.538;2023-03-14T07:28:17;99045.69;;;9.53;45.41
66176;BME280;52977;44.816;20.538;2023-03-14T07:30:48;99084.75;;;9.87;45.15
66176;BME280;52977;44.816;20.538;2023-03-14T07:33:20;99058.78;;;9.81;44.27
66176;BME280;52977;44.816;20.538;2023-03-14T07:35:49;99000.38;;;9.48;43.29
66176;BME280;52977;44.816;20.538;2023-03-14T07:38:16;99056.28;;;9.97;42.90
66176;BME280;52977;44.816;20.538;2023-03-14T07:41:02;99074.22;;;10.19;42.71
66176;BME280;52977;44.816;20.538;2023-03-14T07:43:32;99055.13;;;10.19;42.45
66176;BME280;52977;44.816;20.538;2023-03-14T07:46:00;99061.84;;;10.34;42.01
66176;BME280;52977;44.816;20.538;2023-03-14T07:48:26;99050.94;;;10.34;41.47
66176;BME280;52977;44.816;20.538;2023-03-14T07:50:53;99061.59;;;10.48;41.48
66176;BME280;52977;44.816;20.538;2023-03-14T07:53:19;99005.78;;;10.24;41.67
66176;BME280;52977;44.816;20.538;2023-03-14T07:55:45;99027.63;;;10.57;41.06
66176;BME280;52977;44.816;20.538;2023-03-14T07:58:12;99013.63;;;10.59;41.74
66176;BME280;52977;44.816;20.538;2023-03-14T08:00:38;99016.63;;;10.66;41.55
66176;BME280;52977;44.816;20.538;2023-03-14T08:03:03;98959.97;;;10.38;41.65
66176;BME280;52977;44.816;20.538;2023-03-14T08:05:30;99016.50;;;10.75;41.35
66176;BME280;52977;44.816;20.538;2023-03-14T08:07:56;99025.28;;;10.81;40.99
66176;BME280;52977;44.816;20.538;2023-03-14T08:10:22;99023.91;;;10.74;41.01
66176;BME280;52977;44.816;20.538;2023-03-14T08:12:49;98962.09;;;10.45;41.16
66176;BME280;52977;44.816;20.538;2023-03-14T08:15:15;98974.41;;;10.51;40.97
66176;BME280;52977;44.816;20.538;2023-03-14T08:17:41;99021.97;;;10.87;41.06
66176;BME280;52977;44.816;20.538;2023-03-14T08:20:07;99012.97;;;10.87;40.90
66176;BME280;52977;44.816;20.538;2023-03-14T08:22:34;99023.47;;;10.97;41.13
66176;BME280;52977;44.816;20.538;2023-03-14T08:25:05;99010.38;;;10.90;40.47
66176;BME280;52977;44.816;20.538;2023-03-14T08:27:31;98961.34;;;10.69;40.64
66176;BME280;52977;44.816;20.538;2023-03-14T08:29:57;98980.00;;;10.92;40.54
66176;BME280;52977;44.816;20.538;2023-03-14T08:32:23;98979.88;;;10.88;40.96
66176;BME280;52977;44.816;20.538;2023-03-14T08:34:50;98946.88;;;10.81;42.52
66176;BME280;52977;44.816;20.538;2023-03-14T08:37:16;98990.00;;;11.25;41.89
66176;BME280;52977;44.816;20.538;2023-03-14T08:39:42;99011.72;;;11.34;41.27
66176;BME280;52977;44.816;20.538;2023-03-14T08:42:08;99012.50;;;11.34;41.22
66176;BME280;52977;44.816;20.538;2023-03-14T08:44:34;99013.06;;;11.40;41.18
66176;BME280;52977;44.816;20.538;2023-03-14T08:47:00;98958.69;;;11.10;41.11
66176;BME280;52977;44.816;20.538;2023-03-14T08:49:26;98986.78;;;11.35;41.34
66176;BME280;52977;44.816;20.538;2023-03-14T08:51:52;99001.09;;;11.44;40.75
66176;BME280;52977;44.816;20.538;2023-03-14T08:54:18;98990.06;;;11.41;40.77
66176;BME280;52977;44.816;20.538;2023-03-14T08:56:45;98984.72;;;11.44;40.39
66176;BME280;52977;44.816;20.538;2023-03-14T08:59:11;98988.47;;;11.40;40.40
66176;BME280;52977;44.816;20.538;2023-03-14T09:01:37;98940.84;;;11.13;40.73
66176;BME280;52977;44.816;20.538;2023-03-14T09:04:03;98897.63;;;10.90;40.72
66176;BME280;52977;44.816;20.538;2023-03-14T09:06:29;98989.44;;;11.60;40.71
66176;BME280;52977;44.816;20.538;2023-03-14T09:08:56;98954.66;;;11.44;40.73
66176;BME280;52977;44.816;20.538;2023-03-14T09:11:22;98945.19;;;11.42;40.70
66176;BME280;52977;44.816;20.538;2023-03-14T09:13:48;98712.75;;;9.84;40.89
66176;BME280;52977;44.816;20.538;2023-03-14T09:16:14;98972.31;;;11.75;40.80
66176;BME280;52977;44.816;20.538;2023-03-14T09:18:40;98965.78;;;11.80;40.53
66176;BME280;52977;44.816;20.538;2023-03-14T09:21:07;98916.94;;;11.50;40.60
66176;BME280;52977;44.816;20.538;2023-03-14T09:23:33;98917.78;;;11.67;40.84
66176;BME280;52977;44.816;20.538;2023-03-14T09:26:00;98930.72;;;11.82;40.32
66176;BME280;52977;44.816;20.538;2023-03-14T09:28:26;98928.16;;;11.89;40.77
66176;BME280;52977;44.816;20.538;2023-03-14T09:30:53;98946.56;;;12.05;40.45
66176;BME280;52977;44.816;20.538;2023-03-14T09:33:20;98908.63;;;12.03;40.18
66176;BME280;52977;44.816;20.538;2023-03-14T09:35:46;98891.69;;;11.98;39.80
66176;BME280;52977;44.816;20.538;2023-03-14T09:38:12;98897.88;;;12.10;39.83
66176;BME280;52977;44.816;20.538;2023-03-14T09:40:39;98918.97;;;12.26;40.13
66176;BME280;52977;44.816;20.538;2023-03-14T09:43:05;98842.50;;;11.85;39.85
66176;BME280;52977;44.816;20.538;2023-03-14T09:45:35;98900.50;;;12.39;39.84
66176;BME280;52977;44.816;20.538;2023-03-14T09:48:03;98856.13;;;12.13;40.38
66176;BME280;52977;44.816;20.538;2023-03-14T09:50:39;98894.25;;;12.38;40.08
66176;BME280;52977;44.816;20.538;2023-03-14T09:53:11;98858.16;;;12.33;39.86
66176;BME280;52977;44.816;20.538;2023-03-14T09:55:39;98874.81;;;12.59;39.78
66176;BME280;52977;44.816;20.538;2023-03-14T09:58:11;98892.44;;;12.78;39.65
66176;BME280;52977;44.816;20.538;2023-03-14T10:00:38;98888.34;;;12.88;39.87
66176;BME280;52977;44.816;20.538;2023-03-14T10:05:40;98852.31;;;12.86;39.94
66176;BME280;52977;44.816;20.538;2023-03-14T10:08:10;98843.81;;;12.91;39.21
66176;BME280;52977;44.816;20.538;2023-03-14T10:10:36;98864.53;;;13.08;38.74
66176;BME280;52977;44.816;20.538;2023-03-14T10:13:26;98811.34;;;12.73;39.22
66176;BME280;52977;44.816;20.538;2023-03-14T10:15:59;98855.13;;;13.09;39.50
66176;BME280;52977;44.816;20.538;2023-03-14T10:18:29;98857.59;;;13.14;39.42
66176;BME280;52977;44.816;20.538;2023-03-14T10:23:44;98770.44;;;12.80;39.25
66176;BME280;52977;44.816;20.538;2023-03-14T10:26:16;98836.03;;;13.32;38.83
66176;BME280;52977;44.816;20.538;2023-03-14T10:28:50;98808.41;;;13.21;39.12
66176;BME280;52977;44.816;20.538;2023-03-14T10:31:17;98772.94;;;13.09;39.12
66176;BME280;52977;44.816;20.538;2023-03-14T10:34:01;98812.25;;;13.36;38.51
66176;BME280;52977;44.816;20.538;2023-03-14T10:36:29;98817.22;;;13.50;38.42
66176;BME280;52977;44.816;20.538;2023-03-14T10:42:01;98807.25;;;13.61;39.26
66176;BME280;52977;44.816;20.538;2023-03-14T10:44:29;98723.41;;;13.18;38.84
66176;BME280;52977;44.816;20.538;2023-03-14T10:47:00;98782.28;;;13.66;38.79
66176;BME280;52977;44.816;20.538;2023-03-14T10:49:30;98789.22;;;13.83;39.28
66176;BME280;52977;44.816;20.538;2023-03-14T10:52:46;98750.16;;;13.67;39.05
66176;BME280;52977;44.816;20.538;2023-03-14T10:54:54;98773.41;;;14.00;38.58
66176;BME280;52977;44.816;20.538;2023-03-14T10:57:22;98763.03;;;13.90;38.61
66176;BME280;52977;44.816;20.538;2023-03-14T10:59:48;98751.59;;;13.84;38.63
66176;BME280;52977;44.816;20.538;2023-03-14T11:02:34;98765.72;;;14.09;38.08
66176;BME280;52977;44.816;20.538;2023-03-14T11:05:34;98763.41;;;14.11;38.51
66176;BME280;52977;44.816;20.538;2023-03-14T11:08:12;98741.75;;;14.06;38.46
66176;BME280;52977;44.816;20.538;2023-03-14T11:10:44;98765.97;;;14.27;37.47
66176;BME280;52977;44.816;20.538;2023-03-14T11:13:19;98751.16;;;14.32;37.58
66176;BME280;52977;44.816;20.538;2023-03-14T11:16:02;98740.66;;;14.38;36.75
66176;BME280;52977;44.816;20.538;2023-03-14T11:28:57;98695.31;;;14.51;36.22
66176;BME280;52977;44.816;20.538;2023-03-14T11:31:28;98645.56;;;14.26;36.11
66176;BME280;52977;44.816;20.538;2023-03-14T11:36:46;98675.13;;;14.66;36.49
66176;BME280;52977;44.816;20.538;2023-03-14T11:39:18;98599.28;;;14.21;36.85
66176;BME280;52977;44.816;20.538;2023-03-14T11:41:46;98592.34;;;14.30;37.04
66176;BME280;52977;44.816;20.538;2023-03-14T11:44:26;98601.66;;;14.26;36.80
66176;BME280;52977;44.816;20.538;2023-03-14T11:47:06;98664.25;;;14.77;36.86
66176;BME280;52977;44.816;20.538;2023-03-14T11:49:38;98648.59;;;14.78;36.95
66176;BME280;52977;44.816;20.538;2023-03-14T11:52:13;98657.22;;;14.80;37.03
66176;BME280;52977;44.816;20.538;2023-03-14T11:57:33;98526.91;;;14.02;36.71
66176;BME280;52977;44.816;20.538;2023-03-14T12:00:04;98654.94;;;14.85;36.70
66176;BME280;52977;44.816;20.538;2023-03-14T12:13:13;98608.75;;;14.98;36.66
66176;BME280;52977;44.816;20.538;2023-03-14T12:15:46;98607.31;;;15.12;36.96
66176;BME280;52977;44.816;20.538;2023-03-14T12:18:35;98588.44;;;15.10;36.50
66176;BME280;52977;44.816;20.538;2023-03-14T12:21:06;98594.00;;;15.17;36.44
66176;BME280;52977;44.816;20.538;2023-03-14T12:23:55;98603.44;;;15.20;36.89
66176;BME280;52977;44.816;20.538;2023-03-14T12:26:25;98586.91;;;15.13;35.96
66176;BME280;52977;44.816;20.538;2023-03-14T12:28:52;98572.84;;;15.21;36.54
66176;BME280;52977;44.816;20.538;2023-03-14T12:31:38;98556.72;;;15.20;36.27
66176;BME280;52977;44.816;20.538;2023-03-14T12:37:04;98565.22;;;15.60;35.69
66176;BME280;52977;44.816;20.538;2023-03-14T12:44:49;98547.38;;;15.98;35.56
66176;BME280;52977;44.816;20.538;2023-03-14T12:49:49;98538.06;;;16.28;35.59
66176;BME280;52977;44.816;20.538;2023-03-14T12:52:20;98529.84;;;16.43;34.86
66176;BME280;52977;44.816;20.538;2023-03-14T12:54:50;98526.31;;;16.60;34.46
66176;BME280;52977;44.816;20.538;2023-03-14T13:00:32;98373.59;;;15.82;34.45
66176;BME280;52977;44.816;20.538;2023-03-14T13:05:55;98534.25;;;16.90;34.18
66176;BME280;52977;44.816;20.538;2023-03-14T13:08:34;98517.28;;;16.60;34.35
66176;BME280;52977;44.816;20.538;2023-03-14T13:11:02;98522.38;;;16.57;34.48
66176;BME280;52977;44.816;20.538;2023-03-14T13:13:34;98519.59;;;16.43;34.71
66176;BME280;52977;44.816;20.538;2023-03-14T13:16:02;98513.28;;;16.28;34.49
66176;BME280;52977;44.816;20.538;2023-03-14T13:18:36;98505.00;;;16.17;34.63
66176;BME280;52977;44.816;20.538;2023-03-14T13:21:09;98511.25;;;16.14;34.84
66176;BME280;52977;44.816;20.538;2023-03-14T13:23:37;98508.88;;;15.98;34.96
66176;BME280;52977;44.816;20.538;2023-03-14T13:26:11;98501.00;;;15.97;35.13
66176;BME280;52977;44.816;20.538;2023-03-14T13:28:38;98490.69;;;15.79;35.52
66176;BME280;52977;44.816;20.538;2023-03-14T13:31:05;98504.47;;;15.83;35.92
66176;BME280;52977;44.816;20.538;2023-03-14T13:33:33;98475.66;;;15.62;35.79
66176;BME280;52977;44.816;20.538;2023-03-14T13:36:04;98486.00;;;15.80;35.77
66176;BME280;52977;44.816;20.538;2023-03-14T13:38:34;98431.94;;;15.39;36.24
66176;BME280;52977;44.816;20.538;2023-03-14T13:41:04;98487.13;;;15.79;36.64
66176;BME280;52977;44.816;20.538;2023-03-14T13:43:33;98493.81;;;15.78;36.78
66176;BME280;52977;44.816;20.538;2023-03-14T13:46:14;98428.81;;;15.41;36.45
66176;BME280;52977;44.816;20.538;2023-03-14T13:48:56;98477.66;;;15.72;36.20
66176;BME280;52977;44.816;20.538;2023-03-14T13:51:24;98460.75;;;15.67;36.24
66176;BME280;52977;44.816;20.538;2023-03-14T13:53:54;98453.69;;;15.66;36.33
66176;BME280;52977;44.816;20.538;2023-03-14T13:56:23;98458.00;;;15.67;36.36
66176;BME280;52977;44.816;20.538;2023-03-14T13:58:50;98441.50;;;15.63;36.58
66176;BME280;52977;44.816;20.538;2023-03-14T14:01:30;98448.19;;;15.77;36.29
66176;BME280;52977;44.816;20.538;2023-03-14T14:04:06;98439.53;;;15.67;36.16
66176;BME280;52977;44.816;20.538;2023-03-14T14:06:39;98460.06;;;15.84;35.60
66176;BME280;52977;44.816;20.538;2023-03-14T14:09:19;98456.91;;;15.86;35.41
66176;BME280;52977;44.816;20.538;2023-03-14T14:12:00;98435.28;;;15.81;35.61
66176;BME280;52977;44.816;20.538;2023-03-14T14:17:05;98374.25;;;15.50;36.04